sensor_id;sensor_type;location;lat;lon;timestamp;P1;durP1;ratioP1;P2;durP2;ratioP2
35126;SDS011;21300;52.006;5.798;2024-02-26T00:00:31;6.88;;;4.45;;
35126;SDS011;21300;52.006;5.798;2024-02-26T00:02:59;6.32;;;4.18;;
35126;SDS011;21300;52.006;5.798;2024-02-26T00:05:25;8.27;;;4.45;;
35126;SDS011;21300;52.006;5.798;2024-02-26T00:07:51;5.50;;;4.38;;
35126;SDS011;21300;52.006;5.798;2024-02-26T00:10:16;5.90;;;4.03;;
35126;SDS011;21300;52.006;5.798;2024-02-26T00:12:42;4.88;;;3.53;;
35126;SDS011;21300;52.006;5.798;2024-02-26T00:15:08;4.95;;;3.70;;
35126;SDS011;21300;52.006;5.798;2024-02-26T00:17:35;6.93;;;4.20;;
35126;SDS011;21300;52.006;5.798;2024-02-26T00:20:01;7.68;;;4.25;;
35126;SDS011;21300;52.006;5.798;2024-02-26T00:22:29;5.78;;;3.85;;
35126;SDS011;21300;52.006;5.798;2024-02-26T00:24:55;5.70;;;4.15;;
35126;SDS011;21300;52.006;5.798;2024-02-26T00:27:21;7.93;;;4.00;;
35126;SDS011;21300;52.006;5.798;2024-02-26T00:29:46;6.78;;;4.00;;
35126;SDS011;21300;52.006;5.798;2024-02-26T00:32:12;5.78;;;4.25;;
35126;SDS011;21300;52.006;5.798;2024-02-26T00:34:37;6.47;;;4.45;;
35126;SDS011;21300;52.006;5.798;2024-02-26T00:37:03;7.72;;;3.53;;
35126;SDS011;21300;52.006;5.798;2024-02-26T00:39:29;7.57;;;3.90;;
35126;SDS011;21300;52.006;5.798;2024-02-26T00:41:55;6.88;;;4.10;;
35126;SDS011;21300;52.006;5.798;2024-02-26T00:44:20;6.90;;;4.20;;
35126;SDS011;21300;52.006;5.798;2024-02-26T00:46:46;9.43;;;4.45;;
35126;SDS011;21300;52.006;5.798;2024-02-26T00:49:11;9.35;;;4.50;;
35126;SDS011;21300;52.006;5.798;2024-02-26T00:51:37;7.95;;;4.28;;
35126;SDS011;21300;52.006;5.798;2024-02-26T00:54:03;7.28;;;4.72;;
35126;SDS011;21300;52.006;5.798;2024-02-26T00:56:28;7.70;;;4.63;;
35126;SDS011;21300;52.006;5.798;2024-02-26T00:58:54;6.22;;;4.65;;
35126;SDS011;21300;52.006;5.798;2024-02-26T01:01:20;8.75;;;4.32;;
35126;SDS011;21300;52.006;5.798;2024-02-26T01:03:45;7.50;;;4.95;;
35126;SDS011;21300;52.006;5.798;2024-02-26T01:06:11;7.80;;;4.43;;
35126;SDS011;21300;52.006;5.798;2024-02-26T01:08:36;7.32;;;4.68;;
35126;SDS011;21300;52.006;5.798;2024-02-26T01:11:02;5.85;;;4.20;;
35126;SDS011;21300;52.006;5.798;2024-02-26T01:13:28;6.30;;;4.20;;
35126;SDS011;21300;52.006;5.798;2024-02-26T01:15:54;5.90;;;4.15;;
35126;SDS011;21300;52.006;5.798;2024-02-26T01:18:20;6.80;;;4.65;;
35126;SDS011;21300;52.006;5.798;2024-02-26T01:20:45;5.65;;;3.53;;
35126;SDS011;21300;52.006;5.798;2024-02-26T01:23:12;6.85;;;4.07;;
35126;SDS011;21300;52.006;5.798;2024-02-26T01:25:37;5.88;;;4.25;;
35126;SDS011;21300;52.006;5.798;2024-02-26T01:28:04;6.53;;;4.25;;
35126;SDS011;21300;52.006;5.798;2024-02-26T01:30:30;7.30;;;4.40;;
35126;SDS011;21300;52.006;5.798;2024-02-26T01:32:56;6.80;;;4.50;;
35126;SDS011;21300;52.006;5.798;2024-02-26T01:35:22;8.48;;;4.32;;
35126;SDS011;21300;52.006;5.798;2024-02-26T01:37:48;6.95;;;4.20;;
35126;SDS011;21300;52.006;5.798;2024-02-26T01:40:14;5.50;;;3.83;;
35126;SDS011;21300;52.006;5.798;2024-02-26T01:42:44;8.45;;;4.40;;
35126;SDS011;21300;52.006;5.798;2024-02-26T01:45:12;8.32;;;4.63;;
35126;SDS011;21300;52.006;5.798;2024-02-26T01:47:46;6.35;;;4.75;;
35126;SDS011;21300;52.006;5.798;2024-02-26T01:50:14;8.80;;;4.70;;
35126;SDS011;21300;52.006;5.798;2024-02-26T01:52:40;6.35;;;4.50;;
35126;SDS011;21300;52.006;5.798;2024-02-26T01:55:06;9.35;;;4.10;;
35126;SDS011;21300;52.006;5.798;2024-02-26T01:57:33;6.60;;;4.75;;
35126;SDS011;21300;52.006;5.798;2024-02-26T01:59:59;9.25;;;5.18;;
35126;SDS011;21300;52.006;5.798;2024-02-26T02:02:25;7.40;;;4.93;;
35126;SDS011;21300;52.006;5.798;2024-02-26T02:04:50;7.65;;;4.80;;
35126;SDS011;21300;52.006;5.798;2024-02-26T02:07:17;6.75;;;4.75;;
35126;SDS011;21300;52.006;5.798;2024-02-26T02:09:44;6.72;;;4.72;;
35126;SDS011;21300;52.006;5.798;2024-02-26T02:12:10;7.75;;;5.00;;
35126;SDS011;21300;52.006;5.798;2024-02-26T02:14:36;8.98;;;5.10;;
35126;SDS011;21300;52.006;5.798;2024-02-26T02:17:02;7.20;;;4.93;;
35126;SDS011;21300;52.006;5.798;2024-02-26T02:19:27;8.10;;;4.78;;
35126;SDS011;21300;52.006;5.798;2024-02-26T02:21:53;8.00;;;5.20;;
35126;SDS011;21300;52.006;5.798;2024-02-26T02:24:18;8.70;;;5.40;;
35126;SDS011;21300;52.006;5.798;2024-02-26T02:26:44;7.82;;;5.03;;
35126;SDS011;21300;52.006;5.798;2024-02-26T02:29:10;10.73;;;5.47;;
35126;SDS011;21300;52.006;5.798;2024-02-26T02:31:37;7.00;;;4.97;;
35126;SDS011;21300;52.006;5.798;2024-02-26T02:34:03;8.68;;;4.78;;
35126;SDS011;21300;52.006;5.798;2024-02-26T02:36:28;8.93;;;4.97;;
35126;SDS011;21300;52.006;5.798;2024-02-26T02:38:54;10.00;;;5.47;;
35126;SDS011;21300;52.006;5.798;2024-02-26T02:41:19;9.07;;;5.75;;
35126;SDS011;21300;52.006;5.798;2024-02-26T02:43:45;8.27;;;5.53;;
35126;SDS011;21300;52.006;5.798;2024-02-26T02:46:11;9.18;;;5.63;;
35126;SDS011;21300;52.006;5.798;2024-02-26T02:48:37;8.63;;;5.60;;
35126;SDS011;21300;52.006;5.798;2024-02-26T02:51:03;7.43;;;4.85;;
35126;SDS011;21300;52.006;5.798;2024-02-26T02:53:29;10.30;;;5.32;;
35126;SDS011;21300;52.006;5.798;2024-02-26T02:55:55;9.00;;;5.35;;
35126;SDS011;21300;52.006;5.798;2024-02-26T02:58:21;9.20;;;5.70;;
35126;SDS011;21300;52.006;5.798;2024-02-26T03:00:46;7.88;;;5.60;;
35126;SDS011;21300;52.006;5.798;2024-02-26T03:03:12;9.48;;;6.43;;
35126;SDS011;21300;52.006;5.798;2024-02-26T03:05:38;9.18;;;5.63;;
35126;SDS011;21300;52.006;5.798;2024-02-26T03:08:03;12.07;;;6.00;;
35126;SDS011;21300;52.006;5.798;2024-02-26T03:10:29;7.78;;;5.03;;
35126;SDS011;21300;52.006;5.798;2024-02-26T03:12:55;10.60;;;5.60;;
35126;SDS011;21300;52.006;5.798;2024-02-26T03:15:21;9.95;;;5.72;;
35126;SDS011;21300;52.006;5.798;2024-02-26T03:17:47;9.32;;;5.45;;
35126;SDS011;21300;52.006;5.798;2024-02-26T03:20:13;12.88;;;5.45;;
35126;SDS011;21300;52.006;5.798;2024-02-26T03:22:39;9.18;;;6.00;;
35126;SDS011;21300;52.006;5.798;2024-02-26T03:25:05;6.65;;;5.22;;
35126;SDS011;21300;52.006;5.798;2024-02-26T03:27:31;10.30;;;5.70;;
35126;SDS011;21300;52.006;5.798;2024-02-26T03:29:57;10.88;;;6.03;;
35126;SDS011;21300;52.006;5.798;2024-02-26T03:32:23;8.00;;;5.40;;
35126;SDS011;21300;52.006;5.798;2024-02-26T03:34:49;7.85;;;5.45;;
35126;SDS011;21300;52.006;5.798;2024-02-26T03:37:14;6.80;;;5.07;;
35126;SDS011;21300;52.006;5.798;2024-02-26T03:39:40;8.35;;;5.47;;
35126;SDS011;21300;52.006;5.798;2024-02-26T03:42:06;6.80;;;5.03;;
35126;SDS011;21300;52.006;5.798;2024-02-26T03:44:31;8.90;;;4.93;;
35126;SDS011;21300;52.006;5.798;2024-02-26T03:46:57;10.88;;;4.90;;
35126;SDS011;21300;52.006;5.798;2024-02-26T03:49:22;7.30;;;4.75;;
35126;SDS011;21300;52.006;5.798;2024-02-26T03:51:48;8.80;;;4.75;;
35126;SDS011;21300;52.006;5.798;2024-02-26T03:54:14;6.07;;;4.40;;
35126;SDS011;21300;52.006;5.798;2024-02-26T03:56:39;6.63;;;4.70;;
35126;SDS011;21300;52.006;5.798;2024-02-26T03:59:05;7.18;;;5.22;;
35126;SDS011;21300;52.006;5.798;2024-02-26T04:01:31;7.90;;;5.40;;
35126;SDS011;21300;52.006;5.798;2024-02-26T04:03:56;8.45;;;4.55;;
35126;SDS011;21300;52.006;5.798;2024-02-26T04:06:22;9.95;;;5.50;;
35126;SDS011;21300;52.006;5.798;2024-02-26T04:08:48;9.95;;;5.63;;
35126;SDS011;21300;52.006;5.798;2024-02-26T04:11:13;8.63;;;5.13;;
35126;SDS011;21300;52.006;5.798;2024-02-26T04:13:42;8.50;;;5.07;;
35126;SDS011;21300;52.006;5.798;2024-02-26T04:16:11;9.27;;;5.53;;
35126;SDS011;21300;52.006;5.798;2024-02-26T04:18:36;9.13;;;5.30;;
35126;SDS011;21300;52.006;5.798;2024-02-26T04:21:03;7.95;;;5.47;;
35126;SDS011;21300;52.006;5.798;2024-02-26T04:23:30;7.90;;;4.57;;
35126;SDS011;21300;52.006;5.798;2024-02-26T04:25:56;9.57;;;5.80;;
35126;SDS011;21300;52.006;5.798;2024-02-26T04:28:21;11.07;;;5.85;;
35126;SDS011;21300;52.006;5.798;2024-02-26T04:30:50;8.88;;;5.55;;
35126;SDS011;21300;52.006;5.798;2024-02-26T04:33:16;11.63;;;6.00;;
35126;SDS011;21300;52.006;5.798;2024-02-26T04:35:42;8.75;;;5.70;;
35126;SDS011;21300;52.006;5.798;2024-02-26T04:38:07;9.93;;;5.40;;
35126;SDS011;21300;52.006;5.798;2024-02-26T04:40:33;10.15;;;6.32;;
35126;SDS011;21300;52.006;5.798;2024-02-26T04:42:59;10.65;;;6.50;;
35126;SDS011;21300;52.006;5.798;2024-02-26T04:45:24;10.98;;;6.10;;
35126;SDS011;21300;52.006;5.798;2024-02-26T04:47:50;10.23;;;6.30;;
35126;SDS011;21300;52.006;5.798;2024-02-26T04:50:16;11.63;;;5.85;;
35126;SDS011;21300;52.006;5.798;2024-02-26T04:52:42;11.23;;;6.38;;
35126;SDS011;21300;52.006;5.798;2024-02-26T04:55:07;11.63;;;6.53;;
35126;SDS011;21300;52.006;5.798;2024-02-26T04:57:33;7.72;;;5.55;;
35126;SDS011;21300;52.006;5.798;2024-02-26T04:59:59;9.98;;;6.20;;
35126;SDS011;21300;52.006;5.798;2024-02-26T05:02:24;11.75;;;6.45;;
35126;SDS011;21300;52.006;5.798;2024-02-26T05:04:50;9.95;;;5.88;;
35126;SDS011;21300;52.006;5.798;2024-02-26T05:07:16;10.90;;;6.30;;
35126;SDS011;21300;52.006;5.798;2024-02-26T05:09:44;9.98;;;6.15;;
35126;SDS011;21300;52.006;5.798;2024-02-26T05:12:10;10.57;;;6.18;;
35126;SDS011;21300;52.006;5.798;2024-02-26T05:14:35;9.13;;;6.07;;
35126;SDS011;21300;52.006;5.798;2024-02-26T05:17:01;9.10;;;5.93;;
35126;SDS011;21300;52.006;5.798;2024-02-26T05:19:27;12.15;;;6.70;;
35126;SDS011;21300;52.006;5.798;2024-02-26T05:21:52;11.98;;;6.45;;
35126;SDS011;21300;52.006;5.798;2024-02-26T05:24:18;14.25;;;6.78;;
35126;SDS011;21300;52.006;5.798;2024-02-26T05:26:47;10.18;;;6.20;;
35126;SDS011;21300;52.006;5.798;2024-02-26T05:29:13;10.00;;;6.28;;
35126;SDS011;21300;52.006;5.798;2024-02-26T05:31:42;11.35;;;6.65;;
35126;SDS011;21300;52.006;5.798;2024-02-26T05:34:08;10.63;;;6.18;;
35126;SDS011;21300;52.006;5.798;2024-02-26T05:36:33;10.25;;;6.25;;
35126;SDS011;21300;52.006;5.798;2024-02-26T05:39:02;9.60;;;6.20;;
35126;SDS011;21300;52.006;5.798;2024-02-26T05:41:28;9.55;;;5.85;;
35126;SDS011;21300;52.006;5.798;2024-02-26T05:43:54;10.55;;;6.20;;
35126;SDS011;21300;52.006;5.798;2024-02-26T05:46:20;15.10;;;6.40;;
35126;SDS011;21300;52.006;5.798;2024-02-26T05:48:47;10.85;;;5.90;;
35126;SDS011;21300;52.006;5.798;2024-02-26T05:51:14;9.35;;;6.05;;
35126;SDS011;21300;52.006;5.798;2024-02-26T05:53:40;11.93;;;6.07;;
35126;SDS011;21300;52.006;5.798;2024-02-26T05:56:06;11.07;;;5.97;;
35126;SDS011;21300;52.006;5.798;2024-02-26T05:58:32;12.40;;;6.63;;
35126;SDS011;21300;52.006;5.798;2024-02-26T06:00:58;11.05;;;6.35;;
35126;SDS011;21300;52.006;5.798;2024-02-26T06:03:25;8.40;;;5.65;;
35126;SDS011;21300;52.006;5.798;2024-02-26T06:05:51;8.65;;;5.50;;
35126;SDS011;21300;52.006;5.798;2024-02-26T06:08:16;14.60;;;6.95;;
35126;SDS011;21300;52.006;5.798;2024-02-26T06:10:42;8.32;;;5.72;;
35126;SDS011;21300;52.006;5.798;2024-02-26T06:13:08;10.40;;;5.93;;
35126;SDS011;21300;52.006;5.798;2024-02-26T06:15:33;8.90;;;5.50;;
35126;SDS011;21300;52.006;5.798;2024-02-26T06:17:59;10.20;;;6.45;;
35126;SDS011;21300;52.006;5.798;2024-02-26T06:20:25;11.70;;;6.63;;
35126;SDS011;21300;52.006;5.798;2024-02-26T06:22:53;9.00;;;5.45;;
35126;SDS011;21300;52.006;5.798;2024-02-26T06:25:19;11.77;;;6.38;;
35126;SDS011;21300;52.006;5.798;2024-02-26T06:27:45;10.60;;;6.25;;
35126;SDS011;21300;52.006;5.798;2024-02-26T06:30:10;11.18;;;6.13;;
35126;SDS011;21300;52.006;5.798;2024-02-26T06:32:37;7.00;;;4.82;;
35126;SDS011;21300;52.006;5.798;2024-02-26T06:35:03;10.85;;;6.38;;
35126;SDS011;21300;52.006;5.798;2024-02-26T06:37:32;9.80;;;6.65;;
35126;SDS011;21300;52.006;5.798;2024-02-26T06:39:58;10.05;;;6.10;;
35126;SDS011;21300;52.006;5.798;2024-02-26T06:42:24;11.25;;;6.85;;
35126;SDS011;21300;52.006;5.798;2024-02-26T06:44:50;11.35;;;7.00;;
35126;SDS011;21300;52.006;5.798;2024-02-26T06:47:16;12.00;;;6.97;;
35126;SDS011;21300;52.006;5.798;2024-02-26T06:49:45;13.23;;;7.20;;
35126;SDS011;21300;52.006;5.798;2024-02-26T06:52:10;10.55;;;6.70;;
35126;SDS011;21300;52.006;5.798;2024-02-26T06:54:36;12.25;;;7.40;;
35126;SDS011;21300;52.006;5.798;2024-02-26T06:57:02;10.82;;;7.38;;
35126;SDS011;21300;52.006;5.798;2024-02-26T06:59:28;11.82;;;7.07;;
35126;SDS011;21300;52.006;5.798;2024-02-26T07:01:53;11.52;;;7.60;;
35126;SDS011;21300;52.006;5.798;2024-02-26T07:04:19;12.35;;;7.63;;
35126;SDS011;21300;52.006;5.798;2024-02-26T07:06:45;12.25;;;7.68;;
35126;SDS011;21300;52.006;5.798;2024-02-26T07:09:11;13.25;;;7.38;;
35126;SDS011;21300;52.006;5.798;2024-02-26T07:11:37;12.60;;;7.60;;
35126;SDS011;21300;52.006;5.798;2024-02-26T07:14:06;14.35;;;8.15;;
35126;SDS011;21300;52.006;5.798;2024-02-26T07:16:33;16.45;;;8.93;;
35126;SDS011;21300;52.006;5.798;2024-02-26T07:18:59;13.13;;;7.70;;
35126;SDS011;21300;52.006;5.798;2024-02-26T07:21:24;15.15;;;8.80;;
35126;SDS011;21300;52.006;5.798;2024-02-26T07:23:50;13.45;;;8.40;;
35126;SDS011;21300;52.006;5.798;2024-02-26T07:26:16;17.48;;;9.27;;
35126;SDS011;21300;52.006;5.798;2024-02-26T07:28:43;17.55;;;9.15;;
35126;SDS011;21300;52.006;5.798;2024-02-26T07:31:09;18.17;;;9.52;;
35126;SDS011;21300;52.006;5.798;2024-02-26T07:33:34;17.55;;;10.48;;
35126;SDS011;21300;52.006;5.798;2024-02-26T07:36:00;15.07;;;8.73;;
35126;SDS011;21300;52.006;5.798;2024-02-26T07:38:26;20.77;;;10.40;;
35126;SDS011;21300;52.006;5.798;2024-02-26T07:40:51;18.05;;;10.45;;
35126;SDS011;21300;52.006;5.798;2024-02-26T07:43:17;16.80;;;8.88;;
35126;SDS011;21300;52.006;5.798;2024-02-26T07:45:43;17.45;;;10.98;;
35126;SDS011;21300;52.006;5.798;2024-02-26T07:48:09;17.40;;;9.85;;
35126;SDS011;21300;52.006;5.798;2024-02-26T07:50:34;17.50;;;9.43;;
35126;SDS011;21300;52.006;5.798;2024-02-26T07:53:00;17.13;;;10.10;;
35126;SDS011;21300;52.006;5.798;2024-02-26T07:55:26;17.75;;;8.98;;
35126;SDS011;21300;52.006;5.798;2024-02-26T07:57:51;17.60;;;9.50;;
35126;SDS011;21300;52.006;5.798;2024-02-26T08:00:17;18.60;;;10.55;;
35126;SDS011;21300;52.006;5.798;2024-02-26T08:02:43;17.63;;;9.00;;
35126;SDS011;21300;52.006;5.798;2024-02-26T08:05:09;22.17;;;10.23;;
35126;SDS011;21300;52.006;5.798;2024-02-26T08:07:35;19.08;;;10.32;;
35126;SDS011;21300;52.006;5.798;2024-02-26T08:10:00;20.52;;;11.10;;
35126;SDS011;21300;52.006;5.798;2024-02-26T08:12:26;20.05;;;9.10;;
35126;SDS011;21300;52.006;5.798;2024-02-26T08:14:52;20.77;;;11.02;;
35126;SDS011;21300;52.006;5.798;2024-02-26T08:17:17;24.25;;;11.05;;
35126;SDS011;21300;52.006;5.798;2024-02-26T08:19:43;17.92;;;9.32;;
35126;SDS011;21300;52.006;5.798;2024-02-26T08:22:09;18.77;;;9.95;;
35126;SDS011;21300;52.006;5.798;2024-02-26T08:24:40;19.58;;;9.18;;
35126;SDS011;21300;52.006;5.798;2024-02-26T08:27:09;20.88;;;10.75;;
35126;SDS011;21300;52.006;5.798;2024-02-26T08:29:35;21.42;;;9.40;;
35126;SDS011;21300;52.006;5.798;2024-02-26T08:32:01;20.58;;;11.30;;
35126;SDS011;21300;52.006;5.798;2024-02-26T08:34:27;17.73;;;9.10;;
35126;SDS011;21300;52.006;5.798;2024-02-26T08:36:52;21.48;;;10.32;;
35126;SDS011;21300;52.006;5.798;2024-02-26T08:39:18;21.95;;;10.20;;
35126;SDS011;21300;52.006;5.798;2024-02-26T08:41:44;24.00;;;10.60;;
35126;SDS011;21300;52.006;5.798;2024-02-26T08:44:10;23.27;;;11.35;;
35126;SDS011;21300;52.006;5.798;2024-02-26T08:46:36;23.05;;;11.05;;
35126;SDS011;21300;52.006;5.798;2024-02-26T08:49:01;20.45;;;10.77;;
35126;SDS011;21300;52.006;5.798;2024-02-26T08:51:28;21.30;;;10.80;;
35126;SDS011;21300;52.006;5.798;2024-02-26T08:53:54;23.92;;;11.40;;
35126;SDS011;21300;52.006;5.798;2024-02-26T08:56:20;22.52;;;10.63;;
35126;SDS011;21300;52.006;5.798;2024-02-26T08:58:46;21.85;;;10.43;;
35126;SDS011;21300;52.006;5.798;2024-02-26T09:01:16;24.23;;;11.30;;
35126;SDS011;21300;52.006;5.798;2024-02-26T09:03:42;20.52;;;9.13;;
35126;SDS011;21300;52.006;5.798;2024-02-26T09:06:08;22.20;;;11.38;;
35126;SDS011;21300;52.006;5.798;2024-02-26T09:08:34;24.15;;;11.00;;
35126;SDS011;21300;52.006;5.798;2024-02-26T09:11:01;24.27;;;11.52;;
35126;SDS011;21300;52.006;5.798;2024-02-26T09:13:28;21.75;;;10.73;;
35126;SDS011;21300;52.006;5.798;2024-02-26T09:15:54;23.83;;;11.07;;
35126;SDS011;21300;52.006;5.798;2024-02-26T09:18:20;22.92;;;10.85;;
35126;SDS011;21300;52.006;5.798;2024-02-26T09:20:45;21.25;;;10.57;;
35126;SDS011;21300;52.006;5.798;2024-02-26T09:23:11;25.00;;;10.75;;
35126;SDS011;21300;52.006;5.798;2024-02-26T09:25:37;22.90;;;10.32;;
35126;SDS011;21300;52.006;5.798;2024-02-26T09:28:03;22.20;;;10.40;;
35126;SDS011;21300;52.006;5.798;2024-02-26T09:30:29;16.15;;;8.63;;
35126;SDS011;21300;52.006;5.798;2024-02-26T09:32:54;24.75;;;10.45;;
35126;SDS011;21300;52.006;5.798;2024-02-26T09:35:20;20.35;;;10.18;;
35126;SDS011;21300;52.006;5.798;2024-02-26T09:37:46;18.70;;;9.80;;
35126;SDS011;21300;52.006;5.798;2024-02-26T09:40:14;19.65;;;9.15;;
35126;SDS011;21300;52.006;5.798;2024-02-26T09:42:46;19.75;;;8.65;;
35126;SDS011;21300;52.006;5.798;2024-02-26T09:45:12;19.35;;;9.55;;
35126;SDS011;21300;52.006;5.798;2024-02-26T09:47:43;19.20;;;9.57;;
35126;SDS011;21300;52.006;5.798;2024-02-26T09:50:10;20.17;;;9.68;;
35126;SDS011;21300;52.006;5.798;2024-02-26T09:52:38;20.70;;;9.85;;
35126;SDS011;21300;52.006;5.798;2024-02-26T09:55:07;17.83;;;8.40;;
35126;SDS011;21300;52.006;5.798;2024-02-26T09:57:35;16.70;;;8.52;;
35126;SDS011;21300;52.006;5.798;2024-02-26T10:00:03;18.00;;;9.15;;
35126;SDS011;21300;52.006;5.798;2024-02-26T10:02:30;17.77;;;9.18;;
35126;SDS011;21300;52.006;5.798;2024-02-26T10:04:58;18.30;;;10.27;;
35126;SDS011;21300;52.006;5.798;2024-02-26T10:07:30;16.38;;;8.40;;
35126;SDS011;21300;52.006;5.798;2024-02-26T10:09:56;18.38;;;8.30;;
35126;SDS011;21300;52.006;5.798;2024-02-26T10:12:22;14.75;;;7.82;;
35126;SDS011;21300;52.006;5.798;2024-02-26T10:14:50;17.67;;;9.20;;
35126;SDS011;21300;52.006;5.798;2024-02-26T10:17:16;19.13;;;9.63;;
35126;SDS011;21300;52.006;5.798;2024-02-26T10:19:46;17.95;;;9.02;;
35126;SDS011;21300;52.006;5.798;2024-02-26T10:22:12;16.33;;;9.23;;
35126;SDS011;21300;52.006;5.798;2024-02-26T10:24:37;20.20;;;8.90;;
35126;SDS011;21300;52.006;5.798;2024-02-26T10:27:03;15.98;;;8.40;;
35126;SDS011;21300;52.006;5.798;2024-02-26T10:29:31;16.42;;;9.23;;
35126;SDS011;21300;52.006;5.798;2024-02-26T10:31:57;17.08;;;8.57;;
35126;SDS011;21300;52.006;5.798;2024-02-26T10:34:23;18.38;;;9.48;;
35126;SDS011;21300;52.006;5.798;2024-02-26T10:36:49;15.48;;;9.15;;
35126;SDS011;21300;52.006;5.798;2024-02-26T10:39:14;18.65;;;8.80;;
35126;SDS011;21300;52.006;5.798;2024-02-26T10:41:41;17.15;;;9.32;;
35126;SDS011;21300;52.006;5.798;2024-02-26T10:44:09;16.60;;;9.13;;
35126;SDS011;21300;52.006;5.798;2024-02-26T10:46:41;13.57;;;7.88;;
35126;SDS011;21300;52.006;5.798;2024-02-26T10:49:12;17.52;;;8.75;;
35126;SDS011;21300;52.006;5.798;2024-02-26T10:51:40;14.68;;;8.13;;
35126;SDS011;21300;52.006;5.798;2024-02-26T10:54:09;17.63;;;9.70;;
35126;SDS011;21300;52.006;5.798;2024-02-26T10:56:40;18.50;;;9.18;;
35126;SDS011;21300;52.006;5.798;2024-02-26T10:59:09;16.60;;;9.13;;
35126;SDS011;21300;52.006;5.798;2024-02-26T11:01:35;15.57;;;8.05;;
35126;SDS011;21300;52.006;5.798;2024-02-26T11:04:12;17.17;;;8.95;;
35126;SDS011;21300;52.006;5.798;2024-02-26T11:06:44;16.88;;;8.38;;
35126;SDS011;21300;52.006;5.798;2024-02-26T11:09:11;15.38;;;8.82;;
35126;SDS011;21300;52.006;5.798;2024-02-26T11:11:40;18.35;;;8.55;;
35126;SDS011;21300;52.006;5.798;2024-02-26T11:14:08;17.40;;;9.32;;
35126;SDS011;21300;52.006;5.798;2024-02-26T11:16:35;16.77;;;9.40;;
35126;SDS011;21300;52.006;5.798;2024-02-26T11:19:02;18.45;;;9.13;;
35126;SDS011;21300;52.006;5.798;2024-02-26T11:21:28;20.20;;;9.35;;
35126;SDS011;21300;52.006;5.798;2024-02-26T11:24:08;17.48;;;8.57;;
35126;SDS011;21300;52.006;5.798;2024-02-26T11:26:49;15.70;;;8.27;;
35126;SDS011;21300;52.006;5.798;2024-02-26T11:29:24;18.35;;;9.77;;
35126;SDS011;21300;52.006;5.798;2024-02-26T11:31:52;14.52;;;8.73;;
35126;SDS011;21300;52.006;5.798;2024-02-26T11:34:18;17.52;;;8.98;;
35126;SDS011;21300;52.006;5.798;2024-02-26T11:36:44;13.52;;;7.97;;
35126;SDS011;21300;52.006;5.798;2024-02-26T11:39:11;17.58;;;9.65;;
35126;SDS011;21300;52.006;5.798;2024-02-26T11:41:40;21.27;;;8.82;;
35126;SDS011;21300;52.006;5.798;2024-02-26T11:44:05;17.38;;;9.48;;
35126;SDS011;21300;52.006;5.798;2024-02-26T11:46:38;16.35;;;8.70;;
35126;SDS011;21300;52.006;5.798;2024-02-26T11:51:56;16.63;;;9.38;;
35126;SDS011;21300;52.006;5.798;2024-02-26T12:00:13;15.15;;;8.07;;
35126;SDS011;21300;52.006;5.798;2024-02-26T12:05:07;13.93;;;8.35;;
35126;SDS011;21300;52.006;5.798;2024-02-26T12:07:39;15.77;;;8.60;;
35126;SDS011;21300;52.006;5.798;2024-02-26T12:10:28;15.18;;;8.05;;
35126;SDS011;21300;52.006;5.798;2024-02-26T12:13:16;14.30;;;7.93;;
35126;SDS011;21300;52.006;5.798;2024-02-26T12:15:54;14.80;;;8.05;;
35126;SDS011;21300;52.006;5.798;2024-02-26T12:18:21;15.13;;;8.05;;
35126;SDS011;21300;52.006;5.798;2024-02-26T12:23:38;13.93;;;7.37;;
35126;SDS011;21300;52.006;5.798;2024-02-26T12:26:19;15.57;;;8.13;;
35126;SDS011;21300;52.006;5.798;2024-02-26T12:28:46;12.55;;;6.40;;
35126;SDS011;21300;52.006;5.798;2024-02-26T12:31:12;13.43;;;6.78;;
35126;SDS011;21300;52.006;5.798;2024-02-26T12:33:38;13.73;;;7.20;;
35126;SDS011;21300;52.006;5.798;2024-02-26T12:36:03;16.65;;;7.70;;
35126;SDS011;21300;52.006;5.798;2024-02-26T12:38:30;12.48;;;6.47;;
35126;SDS011;21300;52.006;5.798;2024-02-26T12:40:55;12.05;;;5.93;;
35126;SDS011;21300;52.006;5.798;2024-02-26T12:43:21;11.35;;;6.00;;
35126;SDS011;21300;52.006;5.798;2024-02-26T12:45:46;12.65;;;6.30;;
35126;SDS011;21300;52.006;5.798;2024-02-26T12:48:12;12.88;;;6.70;;
35126;SDS011;21300;52.006;5.798;2024-02-26T12:50:38;12.27;;;6.97;;
35126;SDS011;21300;52.006;5.798;2024-02-26T12:53:06;11.45;;;6.05;;
35126;SDS011;21300;52.006;5.798;2024-02-26T12:55:32;13.02;;;6.80;;
35126;SDS011;21300;52.006;5.798;2024-02-26T12:57:59;12.25;;;6.63;;
35126;SDS011;21300;52.006;5.798;2024-02-26T13:00:26;13.30;;;6.32;;
35126;SDS011;21300;52.006;5.798;2024-02-26T13:02:53;10.75;;;6.07;;
35126;SDS011;21300;52.006;5.798;2024-02-26T13:05:20;11.65;;;6.72;;
35126;SDS011;21300;52.006;5.798;2024-02-26T13:07:47;13.02;;;7.15;;
35126;SDS011;21300;52.006;5.798;2024-02-26T13:10:13;14.00;;;6.32;;
35126;SDS011;21300;52.006;5.798;2024-02-26T13:12:47;14.20;;;6.90;;
35126;SDS011;21300;52.006;5.798;2024-02-26T13:15:17;14.73;;;6.57;;
35126;SDS011;21300;52.006;5.798;2024-02-26T13:17:47;13.05;;;6.97;;
35126;SDS011;21300;52.006;5.798;2024-02-26T13:20:24;11.93;;;6.88;;
35126;SDS011;21300;52.006;5.798;2024-02-26T13:22:51;12.73;;;7.47;;
35126;SDS011;21300;52.006;5.798;2024-02-26T13:25:25;12.10;;;7.00;;
35126;SDS011;21300;52.006;5.798;2024-02-26T13:30:17;12.35;;;6.65;;
35126;SDS011;21300;52.006;5.798;2024-02-26T13:32:44;12.25;;;6.72;;
35126;SDS011;21300;52.006;5.798;2024-02-26T13:35:12;13.13;;;7.15;;
35126;SDS011;21300;52.006;5.798;2024-02-26T13:37:38;12.40;;;6.53;;
35126;SDS011;21300;52.006;5.798;2024-02-26T13:40:14;12.40;;;6.80;;
35126;SDS011;21300;52.006;5.798;2024-02-26T13:45:08;14.80;;;7.05;;
35126;SDS011;21300;52.006;5.798;2024-02-26T13:47:35;11.90;;;5.65;;
35126;SDS011;21300;52.006;5.798;2024-02-26T13:50:01;12.27;;;6.93;;
35126;SDS011;21300;52.006;5.798;2024-02-26T13:52:27;14.35;;;7.50;;
35126;SDS011;21300;52.006;5.798;2024-02-26T13:54:53;12.20;;;6.65;;
35126;SDS011;21300;52.006;5.798;2024-02-26T13:57:19;13.48;;;7.07;;
35126;SDS011;21300;52.006;5.798;2024-02-26T13:59:45;14.00;;;7.65;;
35126;SDS011;21300;52.006;5.798;2024-02-26T14:02:11;13.23;;;6.95;;
35126;SDS011;21300;52.006;5.798;2024-02-26T14:04:37;13.13;;;6.55;;
35126;SDS011;21300;52.006;5.798;2024-02-26T14:07:03;10.52;;;6.95;;
35126;SDS011;21300;52.006;5.798;2024-02-26T14:09:30;12.57;;;7.10;;
35126;SDS011;21300;52.006;5.798;2024-02-26T14:11:57;13.65;;;6.75;;
35126;SDS011;21300;52.006;5.798;2024-02-26T14:14:24;12.63;;;6.70;;
35126;SDS011;21300;52.006;5.798;2024-02-26T14:16:51;14.68;;;7.15;;
35126;SDS011;21300;52.006;5.798;2024-02-26T14:19:16;12.52;;;6.80;;
35126;SDS011;21300;52.006;5.798;2024-02-26T14:21:42;12.27;;;6.65;;
35126;SDS011;21300;52.006;5.798;2024-02-26T14:24:08;14.10;;;7.25;;
35126;SDS011;21300;52.006;5.798;2024-02-26T14:26:34;13.82;;;7.35;;
35126;SDS011;21300;52.006;5.798;2024-02-26T14:28:59;13.98;;;8.00;;
35126;SDS011;21300;52.006;5.798;2024-02-26T14:31:25;15.35;;;7.32;;
35126;SDS011;21300;52.006;5.798;2024-02-26T14:33:51;10.98;;;6.35;;
35126;SDS011;21300;52.006;5.798;2024-02-26T14:36:19;13.93;;;7.85;;
35126;SDS011;21300;52.006;5.798;2024-02-26T14:38:46;13.27;;;7.65;;
35126;SDS011;21300;52.006;5.798;2024-02-26T14:41:12;15.45;;;6.95;;
35126;SDS011;21300;52.006;5.798;2024-02-26T14:43:37;12.15;;;6.30;;
35126;SDS011;21300;52.006;5.798;2024-02-26T14:46:03;12.48;;;6.25;;
35126;SDS011;21300;52.006;5.798;2024-02-26T14:48:29;12.95;;;7.03;;
35126;SDS011;21300;52.006;5.798;2024-02-26T14:50:56;10.15;;;6.30;;
35126;SDS011;21300;52.006;5.798;2024-02-26T14:53:22;11.18;;;6.97;;